createdAt,value
2022-08-26T00:02:20.701Z,12.38
2022-08-26T00:04:49.640Z,11.45
2022-08-26T00:07:22.790Z,12.52
2022-08-26T00:09:56.659Z,12.63
2022-08-26T00:12:31.517Z,13.45
2022-08-26T00:15:08.560Z,13.02
2022-08-26T00:17:40.166Z,11.57
2022-08-26T00:20:10.556Z,13.07
2022-08-26T00:25:07.554Z,12.25
2022-08-26T00:30:22.836Z,12.05
2022-08-26T00:32:54.282Z,13.05
2022-08-26T00:35:27.978Z,12.85
2022-08-26T00:37:57.537Z,13.45
2022-08-26T00:40:38.728Z,12.85
2022-08-26T00:43:09.570Z,12.30
2022-08-26T00:45:47.092Z,12.32
2022-08-26T00:48:19.308Z,13.27
2022-08-26T00:50:52.847Z,14.15
2022-08-26T00:53:23.992Z,13.02
2022-08-26T00:56:23.089Z,13.25
2022-08-26T00:58:52.474Z,13.68
2022-08-26T01:01:23.096Z,13.18
2022-08-26T01:03:51.189Z,13.20
2022-08-26T01:06:21.140Z,13.38
2022-08-26T01:08:52.348Z,12.45
2022-08-26T01:11:20.946Z,12.15
2022-08-26T01:13:53.680Z,11.43
2022-08-26T01:16:21.753Z,13.18
2022-08-26T01:18:49.596Z,12.38
2022-08-26T01:21:43.607Z,12.80
2022-08-26T01:24:13.945Z,13.02
2022-08-26T01:26:43.335Z,13.18
2022-08-26T01:29:16.010Z,13.80
2022-08-26T01:31:49.373Z,13.93
2022-08-26T01:34:25.291Z,13.70
2022-08-26T01:37:21.699Z,14.57
2022-08-26T01:39:54.960Z,13.55
2022-08-26T01:42:25.523Z,13.32
2022-08-26T01:44:58.034Z,14.52
2022-08-26T01:47:30.202Z,14.48
2022-08-26T01:50:08.899Z,14.13
2022-08-26T01:52:43.232Z,15.57
2022-08-26T01:55:14.771Z,14.63
2022-08-26T01:58:01.387Z,14.02
2022-08-26T02:00:31.595Z,15.77
2022-08-26T02:03:18.398Z,15.38
2022-08-26T02:05:54.170Z,15.00
2022-08-26T02:08:52.192Z,15.32
2022-08-26T02:11:21.246Z,14.93
2022-08-26T02:14:02.479Z,15.00
2022-08-26T02:16:44.541Z,16.05
2022-08-26T02:19:20.021Z,14.80
2022-08-26T02:21:52.705Z,14.65
2022-08-26T02:24:27.942Z,13.32
2022-08-26T02:26:58.227Z,13.93
2022-08-26T02:29:34.623Z,14.35
2022-08-26T02:32:02.779Z,13.02
2022-08-26T02:34:35.965Z,14.65
2022-08-26T02:37:08.677Z,13.07
2022-08-26T02:39:40.230Z,13.85
2022-08-26T02:44:36.894Z,13.98
2022-08-26T02:47:05.298Z,13.07
2022-08-26T02:49:33.086Z,13.15
2022-08-26T02:52:01.818Z,12.68
2022-08-26T02:54:33.069Z,13.35
2022-08-26T02:57:01.642Z,13.43
2022-08-26T02:59:31.411Z,12.57
2022-08-26T03:02:00.474Z,11.82
2022-08-26T03:04:28.286Z,11.77
2022-08-26T03:06:56.238Z,11.60
2022-08-26T03:09:26.690Z,11.95
2022-08-26T03:11:56.002Z,13.70
2022-08-26T03:14:24.484Z,10.68
2022-08-26T03:16:54.213Z,12.07
2022-08-26T03:19:26.310Z,11.57
2022-08-26T03:21:57.846Z,10.93
2022-08-26T03:24:29.393Z,10.73
2022-08-26T03:26:57.674Z,11.55
2022-08-26T03:29:43.616Z,11.68
2022-08-26T03:32:11.938Z,11.40
2022-08-26T03:34:39.707Z,11.50
2022-08-26T03:37:07.812Z,11.68
2022-08-26T03:39:36.179Z,12.15
2022-08-26T03:42:08.406Z,12.38
2022-08-26T03:44:41.982Z,11.77
2022-08-26T03:47:10.305Z,11.32
2022-08-26T03:49:38.263Z,12.85
2022-08-26T03:52:06.917Z,13.02
2022-08-26T03:54:36.143Z,13.43
2022-08-26T03:57:04.165Z,12.85
2022-08-26T03:59:32.865Z,13.82
2022-08-26T04:02:01.022Z,13.88
2022-08-26T04:04:29.174Z,14.63
2022-08-26T04:06:58.883Z,12.98
2022-08-26T04:09:27.851Z,13.90
2022-08-26T04:11:58.713Z,12.73
2022-08-26T04:14:30.575Z,12.55
2022-08-26T04:17:00.454Z,13.05
2022-08-26T04:19:28.143Z,12.13
2022-08-26T04:21:55.862Z,12.60
2022-08-26T04:24:27.197Z,12.85
2022-08-26T04:26:56.650Z,12.55
2022-08-26T04:29:26.894Z,12.55
2022-08-26T04:31:56.016Z,11.85
2022-08-26T04:34:27.276Z,11.63
2022-08-26T04:36:57.930Z,10.95
2022-08-26T04:39:27.755Z,10.23
2022-08-26T04:41:57.964Z,11.05
2022-08-26T04:44:28.981Z,10.38
2022-08-26T04:46:58.505Z,11.80
2022-08-26T04:49:27.514Z,11.18
2022-08-26T04:51:58.256Z,11.15
2022-08-26T04:54:30.683Z,10.07
2022-08-26T04:57:00.325Z,9.82
2022-08-26T04:59:30.369Z,9.88
2022-08-26T05:02:00.161Z,11.15
2022-08-26T05:04:28.062Z,11.63
2022-08-26T05:07:02.890Z,12.77
2022-08-26T05:09:30.846Z,10.38
2022-08-26T05:11:58.681Z,11.75
2022-08-26T05:14:26.794Z,12.95
2022-08-26T05:16:57.383Z,11.70
2022-08-26T05:19:25.309Z,11.65
2022-08-26T05:21:55.692Z,12.70
2022-08-26T05:24:23.635Z,12.57
2022-08-26T05:26:51.406Z,12.25
2022-08-26T05:29:21.788Z,11.98
2022-08-26T05:31:51.997Z,13.93
2022-08-26T05:34:20.985Z,14.98
2022-08-26T05:36:48.940Z,14.73
2022-08-26T05:39:16.943Z,14.93
2022-08-26T05:41:45.218Z,15.13
2022-08-26T05:44:19.006Z,16.58
2022-08-26T05:46:47.217Z,18.33
2022-08-26T05:49:16.087Z,17.83
2022-08-26T05:51:47.519Z,17.58
2022-08-26T05:54:21.845Z,17.23
2022-08-26T05:56:53.581Z,16.70
2022-08-26T05:59:24.588Z,16.88
2022-08-26T06:01:57.648Z,16.42
2022-08-26T06:04:27.018Z,17.35
2022-08-26T06:06:58.117Z,18.48
2022-08-26T06:09:26.991Z,18.42
2022-08-26T06:11:56.054Z,17.27
2022-08-26T06:14:23.761Z,17.20
2022-08-26T06:16:51.595Z,17.98
2022-08-26T06:19:21.149Z,16.58
2022-08-26T06:24:41.245Z,16.35
2022-08-26T06:27:13.663Z,16.27
2022-08-26T06:29:41.980Z,16.65
2022-08-26T06:32:09.769Z,16.45
2022-08-26T06:34:37.646Z,16.02
2022-08-26T06:37:06.647Z,17.95
2022-08-26T06:39:35.029Z,16.95
2022-08-26T06:42:06.129Z,16.95
2022-08-26T06:44:35.109Z,15.50
2022-08-26T06:47:03.498Z,16.58
2022-08-26T06:49:32.270Z,15.57
2022-08-26T06:52:00.123Z,15.07
2022-08-26T06:54:32.910Z,14.30
2022-08-26T06:57:01.248Z,13.25
2022-08-26T06:59:31.329Z,13.90
2022-08-26T07:01:59.116Z,13.57
2022-08-26T07:04:36.068Z,12.98
2022-08-26T07:07:03.875Z,12.32
2022-08-26T07:09:33.250Z,12.55
2022-08-26T07:12:02.379Z,12.57
2022-08-26T07:14:31.793Z,13.27
2022-08-26T07:17:01.767Z,13.43
2022-08-26T07:19:30.831Z,13.75
2022-08-26T07:22:05.018Z,12.68
2022-08-26T07:24:35.925Z,12.63
2022-08-26T07:27:07.310Z,12.82
2022-08-26T07:29:40.036Z,12.23
2022-08-26T07:32:09.873Z,13.70
2022-08-26T07:34:39.393Z,13.55
2022-08-26T07:37:09.875Z,13.93
2022-08-26T07:39:38.111Z,14.30
2022-08-26T07:42:09.610Z,13.48
2022-08-26T07:44:38.316Z,13.47
2022-08-26T07:47:10.399Z,14.05
2022-08-26T07:49:55.213Z,12.93
2022-08-26T07:52:27.242Z,13.77
2022-08-26T07:54:59.843Z,11.90
2022-08-26T07:57:28.791Z,12.40
2022-08-26T07:59:57.724Z,13.00
2022-08-26T08:02:28.272Z,13.13
2022-08-26T08:04:57.893Z,12.60
2022-08-26T08:07:44.541Z,9.88
2022-08-26T08:10:28.675Z,9.80
2022-08-26T08:13:03.322Z,11.63
2022-08-26T08:15:33.230Z,11.07
2022-08-26T08:18:06.550Z,11.50
2022-08-26T08:23:33.523Z,9.60
2022-08-26T08:26:09.313Z,8.77
2022-08-26T08:28:38.542Z,7.22
2022-08-26T08:31:07.007Z,6.80
2022-08-26T08:33:35.336Z,7.82
2022-08-26T08:36:09.247Z,8.20
2022-08-26T08:38:49.974Z,9.10
2022-08-26T08:41:32.083Z,9.15
2022-08-26T08:44:02.212Z,8.00
2022-08-26T08:49:00.499Z,8.48
2022-08-26T08:51:50.232Z,8.20
2022-08-26T08:57:03.916Z,5.70
2022-08-26T08:59:35.357Z,6.35
2022-08-26T09:02:30.714Z,5.93
2022-08-26T09:05:25.733Z,6.18
2022-08-26T09:08:04.530Z,5.03
2022-08-26T09:10:51.513Z,4.38
2022-08-26T09:13:33.919Z,4.70
2022-08-26T09:16:20.533Z,4.55
2022-08-26T09:19:06.638Z,4.38
2022-08-26T09:21:34.976Z,3.83
2022-08-26T09:24:07.824Z,4.53
2022-08-26T09:26:39.144Z,3.60
2022-08-26T09:29:27.195Z,3.13
2022-08-26T09:32:19.579Z,2.90
2022-08-26T09:35:06.326Z,3.28
2022-08-26T09:40:36.519Z,2.90
2022-08-26T09:43:26.204Z,3.65
2022-08-26T09:46:21.575Z,2.85
2022-08-26T09:52:21.475Z,2.90
2022-08-26T09:55:17.637Z,3.60
2022-08-26T09:58:02.240Z,3.17
2022-08-26T10:01:51.848Z,3.20
2022-08-26T10:04:32.956Z,3.42
2022-08-26T10:07:11.262Z,2.85
2022-08-26T10:09:43.170Z,2.88
2022-08-26T10:12:17.824Z,3.13
2022-08-26T10:14:54.355Z,3.05
2022-08-26T10:17:42.171Z,3.55
2022-08-26T10:20:24.076Z,3.30
2022-08-26T10:23:19.863Z,2.90
2022-08-26T10:26:05.738Z,2.88
2022-08-26T10:29:15.234Z,3.20
2022-08-26T10:32:03.415Z,2.92
2022-08-26T10:34:34.557Z,3.35
2022-08-26T10:37:15.513Z,2.35
2022-08-26T10:40:03.424Z,3.33
2022-08-26T10:42:37.435Z,2.90
2022-08-26T10:45:15.042Z,2.85
2022-08-26T10:48:11.094Z,3.40
2022-08-26T10:50:47.521Z,2.88
2022-08-26T10:53:47.463Z,3.30
2022-08-26T10:56:49.017Z,3.13
2022-08-26T10:59:47.836Z,3.13
2022-08-26T11:02:40.972Z,2.60
2022-08-26T11:05:55.788Z,3.55
2022-08-26T11:08:29.899Z,3.30
2022-08-26T11:11:04.016Z,2.40
2022-08-26T11:13:56.941Z,2.45
2022-08-26T11:16:53.362Z,2.95
2022-08-26T11:19:45.622Z,2.50
2022-08-26T11:22:25.921Z,2.97
2022-08-26T11:24:53.612Z,2.50
2022-08-26T11:27:52.290Z,2.90
2022-08-26T11:30:21.564Z,2.50
2022-08-26T11:32:57.959Z,2.85
2022-08-26T11:35:34.901Z,2.92
2022-08-26T11:38:36.534Z,2.85
2022-08-26T11:41:17.310Z,3.50
2022-08-26T11:43:48.856Z,3.05
2022-08-26T11:46:26.102Z,3.38
2022-08-26T11:49:03.676Z,3.42
2022-08-26T11:51:33.483Z,2.85
2022-08-26T11:54:35.591Z,3.00
2022-08-26T11:57:12.143Z,2.58
2022-08-26T11:59:46.374Z,3.10
2022-08-26T12:05:31.015Z,2.63
2022-08-26T12:08:08.937Z,2.45
2022-08-26T12:10:43.516Z,2.90
2022-08-26T12:13:26.462Z,2.88
2022-08-26T12:15:57.578Z,2.95
2022-08-26T12:18:40.018Z,3.10
2022-08-26T12:21:26.631Z,3.30
2022-08-26T12:23:59.733Z,3.28
2022-08-26T12:26:33.435Z,2.90
2022-08-26T12:29:19.994Z,3.00
2022-08-26T12:31:48.560Z,2.92
2022-08-26T12:34:18.594Z,2.25
2022-08-26T12:37:14.856Z,2.83
2022-08-26T12:39:44.916Z,2.83
2022-08-26T12:42:12.681Z,2.50
2022-08-26T12:44:53.191Z,2.60
2022-08-26T12:47:42.987Z,2.90
2022-08-26T12:50:18.118Z,2.85
2022-08-26T12:53:28.675Z,2.38
2022-08-26T12:56:17.449Z,2.67
2022-08-26T12:59:23.123Z,2.53
2022-08-26T13:01:54.118Z,3.15
2022-08-26T13:04:33.855Z,3.00
2022-08-26T13:07:20.963Z,2.95
2022-08-26T13:09:50.719Z,3.00
2022-08-26T13:12:33.966Z,2.70
2022-08-26T13:15:02.428Z,3.00
2022-08-26T13:17:31.625Z,2.42
2022-08-26T13:20:03.890Z,2.95
2022-08-26T13:22:35.101Z,2.67
2022-08-26T13:25:08.062Z,2.50
2022-08-26T13:27:36.439Z,3.13
2022-08-26T13:30:17.482Z,3.00
2022-08-26T13:33:03.139Z,3.00
2022-08-26T13:35:35.726Z,2.40
2022-08-26T13:38:30.888Z,2.72
2022-08-26T13:41:03.607Z,2.55
2022-08-26T13:43:32.555Z,2.80
2022-08-26T13:46:01.637Z,2.90
2022-08-26T13:48:30.010Z,3.30
2022-08-26T13:50:58.189Z,2.90
2022-08-26T13:53:28.889Z,2.78
2022-08-26T13:55:58.094Z,2.75
2022-08-26T13:58:28.547Z,2.92
2022-08-26T14:00:58.092Z,2.58
2022-08-26T14:03:28.612Z,2.72
2022-08-26T14:05:59.933Z,2.80
2022-08-26T14:08:28.069Z,2.80
2022-08-26T14:10:55.733Z,2.75
2022-08-26T14:13:27.223Z,2.70
2022-08-26T14:15:54.987Z,3.13
2022-08-26T14:18:31.012Z,2.70
2022-08-26T14:21:01.218Z,2.85
2022-08-26T14:23:32.131Z,2.42
2022-08-26T14:26:29.173Z,2.95
2022-08-26T14:32:02.904Z,3.27
2022-08-26T14:34:33.822Z,2.78
2022-08-26T14:37:07.707Z,2.63
2022-08-26T14:39:37.148Z,2.85
2022-08-26T14:42:06.662Z,2.97
2022-08-26T14:44:34.656Z,3.03
2022-08-26T14:47:38.095Z,2.90
2022-08-26T14:50:10.489Z,2.90
2022-08-26T14:53:00.239Z,3.15
2022-08-26T14:55:29.537Z,2.60
2022-08-26T14:57:57.681Z,2.60
2022-08-26T15:00:25.827Z,2.33
2022-08-26T15:02:58.739Z,3.53
2022-08-26T15:05:30.330Z,2.30
2022-08-26T15:07:58.120Z,3.15
2022-08-26T15:10:29.266Z,2.58
2022-08-26T15:12:57.081Z,3.25
2022-08-26T15:15:25.108Z,2.65
2022-08-26T15:17:57.692Z,2.97
2022-08-26T15:20:35.900Z,2.85
2022-08-26T15:23:06.417Z,2.95
2022-08-26T15:25:34.229Z,3.00
2022-08-26T15:28:02.211Z,2.50
2022-08-26T15:30:31.935Z,2.30
2022-08-26T15:35:43.751Z,2.58
2022-08-26T15:38:15.765Z,3.00
2022-08-26T15:40:46.489Z,2.25
2022-08-26T15:43:27.772Z,2.55
2022-08-26T15:46:03.441Z,2.55
2022-08-26T15:48:31.302Z,2.55
2022-08-26T15:51:01.632Z,3.03
2022-08-26T15:53:33.775Z,2.53
2022-08-26T15:56:05.080Z,2.65
2022-08-26T15:58:34.150Z,2.58
2022-08-26T16:01:07.560Z,2.60
2022-08-26T16:03:38.312Z,2.22
2022-08-26T16:06:07.063Z,2.70
2022-08-26T16:08:36.755Z,2.83
2022-08-26T16:11:04.839Z,2.88
2022-08-26T16:13:39.881Z,3.00
2022-08-26T16:16:08.547Z,3.03
2022-08-26T16:18:37.783Z,2.80
2022-08-26T16:21:13.700Z,3.85
2022-08-26T16:23:45.004Z,2.05
2022-08-26T16:26:16.996Z,2.30
2022-08-26T16:28:45.333Z,2.50
2022-08-26T16:31:15.650Z,3.35
2022-08-26T16:33:43.966Z,2.47
2022-08-26T16:36:12.072Z,2.25
2022-08-26T16:38:40.246Z,2.70
2022-08-26T16:41:09.009Z,2.63
2022-08-26T16:43:36.916Z,3.22
2022-08-26T16:46:07.413Z,2.58
2022-08-26T16:48:35.405Z,3.00
2022-08-26T16:51:03.515Z,2.88
2022-08-26T16:53:31.619Z,2.22
2022-08-26T16:56:03.380Z,2.83
2022-08-26T16:58:31.418Z,2.90
2022-08-26T17:00:59.145Z,2.80
2022-08-26T17:03:27.735Z,2.53
2022-08-26T17:05:55.445Z,2.67
2022-08-26T17:08:28.401Z,2.65
2022-08-26T17:11:01.839Z,3.08
2022-08-26T17:13:35.170Z,2.92
2022-08-26T17:16:06.476Z,2.80
2022-08-26T17:18:35.549Z,2.45
2022-08-26T17:21:06.776Z,3.15
2022-08-26T17:23:35.404Z,2.60
2022-08-26T17:26:06.083Z,3.28
2022-08-26T17:28:34.153Z,4.75
2022-08-26T17:31:02.123Z,34.28
2022-08-26T17:33:32.918Z,27.50
2022-08-26T17:36:01.544Z,15.30
2022-08-26T17:38:29.306Z,6.47
2022-08-26T17:40:59.112Z,4.50
2022-08-26T17:43:27.305Z,6.13
2022-08-26T17:46:06.788Z,3.67
2022-08-26T17:48:36.710Z,3.92
2022-08-26T17:51:12.204Z,3.47
2022-08-26T17:53:41.252Z,4.40
2022-08-26T17:56:14.838Z,4.15
2022-08-26T17:58:51.025Z,5.30
2022-08-26T18:01:21.629Z,10.93
2022-08-26T18:03:51.224Z,8.30
2022-08-26T18:06:24.480Z,5.18
2022-08-26T18:08:52.211Z,3.60
2022-08-26T18:11:23.099Z,3.45
2022-08-26T18:13:53.065Z,3.00
2022-08-26T18:16:21.092Z,3.28
2022-08-26T18:18:53.512Z,3.85
2022-08-26T18:21:24.570Z,2.45
2022-08-26T18:23:53.704Z,3.70
2022-08-26T18:26:34.401Z,3.05
2022-08-26T18:29:03.791Z,2.60
2022-08-26T18:31:32.112Z,3.40
2022-08-26T18:34:01.982Z,2.58
2022-08-26T18:36:33.533Z,4.00
2022-08-26T18:39:05.978Z,2.58
2022-08-26T18:41:45.157Z,2.80
2022-08-26T18:44:15.814Z,2.55
2022-08-26T18:46:45.265Z,3.38
2022-08-26T18:49:15.234Z,2.27
2022-08-26T18:51:44.420Z,2.30
2022-08-26T18:54:15.084Z,2.75
2022-08-26T18:56:46.427Z,3.03
2022-08-26T18:59:14.235Z,2.63
2022-08-26T19:01:42.678Z,3.30
2022-08-26T19:04:15.573Z,3.10
2022-08-26T19:06:45.833Z,3.80
2022-08-26T19:09:17.941Z,3.25
2022-08-26T19:11:46.718Z,3.28
2022-08-26T19:14:18.295Z,3.83
2022-08-26T19:16:48.439Z,3.33
2022-08-26T19:19:16.627Z,4.45
2022-08-26T19:21:44.702Z,4.85
2022-08-26T19:24:17.457Z,5.30
2022-08-26T19:26:48.594Z,5.45
2022-08-26T19:29:21.197Z,4.75
2022-08-26T19:31:50.576Z,5.35
2022-08-26T19:34:22.457Z,5.78
2022-08-26T19:37:03.144Z,6.15
2022-08-26T19:39:32.343Z,6.20
2022-08-26T19:42:00.550Z,7.53
2022-08-26T19:44:46.823Z,7.47
2022-08-26T19:47:15.215Z,7.35
2022-08-26T19:49:46.305Z,7.72
2022-08-26T19:52:15.688Z,6.95
2022-08-26T19:54:44.536Z,5.57
2022-08-26T19:57:12.416Z,5.32
2022-08-26T19:59:41.724Z,6.28
2022-08-26T20:02:14.902Z,5.55
2022-08-26T20:04:45.683Z,5.82
2022-08-26T20:07:18.506Z,5.55
2022-08-26T20:09:48.008Z,9.70
2022-08-26T20:12:17.541Z,8.32
2022-08-26T20:14:45.212Z,6.07
2022-08-26T20:17:13.570Z,4.45
2022-08-26T20:19:59.713Z,4.60
2022-08-26T20:22:28.294Z,6.35
2022-08-26T20:24:58.969Z,4.60
2022-08-26T20:27:30.808Z,4.40
2022-08-26T20:30:09.231Z,4.57
2022-08-26T20:32:38.547Z,4.50
2022-08-26T20:35:10.360Z,4.85
2022-08-26T20:37:41.542Z,5.45
2022-08-26T20:40:12.599Z,5.35
2022-08-26T20:42:40.622Z,4.45
2022-08-26T20:45:11.117Z,4.78
2022-08-26T20:50:08.693Z,4.90
2022-08-26T20:52:40.117Z,4.55
2022-08-26T20:55:08.442Z,4.32
2022-08-26T20:57:36.325Z,4.68
2022-08-26T21:00:07.240Z,5.10
2022-08-26T21:02:35.192Z,4.18
2022-08-26T21:05:07.106Z,5.70
2022-08-26T21:07:36.384Z,5.00
2022-08-26T21:10:08.844Z,5.20
2022-08-26T21:12:37.671Z,4.72
2022-08-26T21:15:10.439Z,5.50
2022-08-26T21:17:38.713Z,5.90
2022-08-26T21:20:06.985Z,5.60
2022-08-26T21:22:35.675Z,6.53
2022-08-26T21:25:04.113Z,7.25
2022-08-26T21:27:31.946Z,7.35
2022-08-26T21:30:00.662Z,7.68
2022-08-26T21:32:32.579Z,6.75
2022-08-26T21:35:03.503Z,6.68
2022-08-26T21:37:31.751Z,6.32
2022-08-26T21:40:05.246Z,6.82
2022-08-26T21:42:35.067Z,6.50
2022-08-26T21:45:06.945Z,7.50
2022-08-26T21:47:34.890Z,7.70
2022-08-26T21:56:48.980Z,5.93
2022-08-26T21:59:18.903Z,5.47
2022-08-26T22:01:47.148Z,6.22
2022-08-26T22:04:16.141Z,5.75
2022-08-26T22:06:55.332Z,5.50
2022-08-26T22:09:27.454Z,5.72
2022-08-26T22:11:58.008Z,5.80
2022-08-26T22:14:30.868Z,5.43
2022-08-26T22:17:02.765Z,4.90
2022-08-26T22:19:34.000Z,4.85
2022-08-26T22:22:07.727Z,5.50
2022-08-26T22:24:36.084Z,6.40
2022-08-26T22:27:04.290Z,5.97
2022-08-26T22:29:33.414Z,6.30
2022-08-26T22:32:01.951Z,7.30
2022-08-26T22:34:29.655Z,6.95
2022-08-26T22:36:57.647Z,8.55
2022-08-26T22:39:26.332Z,6.88
2022-08-26T22:41:56.883Z,7.35
2022-08-26T22:46:57.089Z,8.00
2022-08-26T22:49:26.556Z,6.65
2022-08-26T22:51:54.584Z,6.07
2022-08-26T22:54:22.811Z,6.13
2022-08-26T22:56:50.627Z,6.53
2022-08-26T22:59:18.394Z,7.30
2022-08-26T23:01:47.483Z,5.53
2022-08-26T23:04:15.398Z,5.13
2022-08-26T23:06:47.519Z,5.90
2022-08-26T23:09:18.537Z,4.97
2022-08-26T23:14:23.104Z,4.55
2022-08-26T23:16:51.573Z,4.53
2022-08-26T23:19:22.679Z,5.13
2022-08-26T23:21:51.290Z,4.50
2022-08-26T23:24:22.391Z,6.00
2022-08-26T23:29:37.358Z,6.53
2022-08-26T23:32:05.572Z,5.50
2022-08-26T23:34:55.467Z,5.15
2022-08-26T23:39:58.508Z,5.45
2022-08-26T23:42:27.097Z,5.40
2022-08-26T23:44:57.513Z,5.32
2022-08-26T23:47:25.352Z,5.28
2022-08-26T23:49:55.510Z,6.25
2022-08-26T23:52:41.598Z,6.80
2022-08-26T23:55:11.899Z,5.93
2022-08-26T23:57:39.902Z,5.93
